Time;durP1;ratioP1;P1;durP2;ratioP2;P2;SDS_P1;SDS_P2;PMS_P1;PMS_P2;Temp;Humidity;BMP_temperature;BMP_pressure;BME280_temperature;BME280_humidity;BME280_pressure;Samples;Min_cycle;Max_cycle;Signal;HPM_P1;HPM_P2
2024/04/18 00:01:00;;;;;;;9.38;5.72;;;;;;;8.29;86.69;98725.81;6937788;25;20322;-76
2024/04/18 00:04:01;;;;;;;10.50;6.03;;;;;;;8.37;87.60;98722.66;6937680;25;19996;-77
2024/04/18 00:07:04;;;;;;;7.10;5.03;;;;;;;8.12;87.61;98728.81;6901313;25;20036;-76
2024/04/18 00:10:05;;;;;;;10.38;5.55;;;;;;;8.12;88.08;98727.03;6947586;25;20026;-76
2024/04/18 00:13:09;;;;;;;10.38;5.75;;;;;;;8.12;88.42;98713.22;6944666;25;20000;-77
2024/04/18 00:16:10;;;;;;;7.55;5.40;;;;;;;8.11;88.24;98714.13;6922781;25;20015;-77
2024/04/18 00:19:12;;;;;;;9.00;5.38;;;;;;;8.02;88.99;98713.03;6938843;25;20079;-76
2024/04/18 00:22:13;;;;;;;10.18;5.82;;;;;;;7.99;88.73;98721.88;6891265;25;20000;-76
2024/04/18 00:25:14;;;;;;;9.88;5.57;;;;;;;8.09;89.29;98711.63;6916963;25;20028;-76
2024/04/18 00:28:16;;;;;;;8.45;5.68;;;;;;;8.07;88.91;98716.13;6913026;25;20403;-68
2024/04/18 00:31:17;;;;;;;11.35;5.60;;;;;;;8.07;88.78;98716.97;6912708;25;19992;-67
2024/04/18 00:34:18;;;;;;;9.53;5.40;;;;;;;8.11;90.08;98716.75;6922141;25;20480;-67
2024/04/18 00:37:19;;;;;;;7.13;5.35;;;;;;;8.04;90.19;98711.16;6924151;25;19993;-68
2024/04/18 00:40:20;;;;;;;7.32;5.38;;;;;;;8.03;89.69;98712.09;6899475;25;20008;-68
2024/04/18 00:43:22;;;;;;;7.68;4.85;;;;;;;7.88;90.44;98706.22;6883389;25;20000;-68
2024/04/18 00:46:27;;;;;;;9.18;5.50;;;;;;;7.84;90.53;98712.56;6896910;25;20065;-68
2024/04/18 00:49:28;;;;;;;8.48;5.20;;;;;;;7.87;91.46;98712.38;6860989;25;20016;-68
2024/04/18 00:52:30;;;;;;;10.10;6.03;;;;;;;8.11;91.95;98716.75;6868171;25;19997;-68
2024/04/18 00:55:32;;;;;;;9.38;5.78;;;;;;;7.99;90.78;98711.50;6878811;25;20464;-68
2024/04/18 00:58:34;;;;;;;7.20;4.88;;;;;;;7.89;91.24;98718.28;6867812;25;20304;-68
2024/04/18 01:01:35;;;;;;;7.47;4.95;;;;;;;7.94;92.10;98717.94;6893407;25;20011;-69
2024/04/18 01:04:40;;;;;;;9.80;5.70;;;;;;;7.88;92.52;98719.22;6892623;25;20439;-68
2024/04/18 01:07:42;;;;;;;8.63;5.55;;;;;;;7.97;91.67;98712.53;6865145;25;20073;-68
2024/04/18 01:10:43;;;;;;;6.85;4.72;;;;;;;8.05;92.57;98711.06;6905248;25;20004;-68
2024/04/18 01:13:44;;;;;;;10.60;5.78;;;;;;;7.94;91.64;98713.56;6901847;25;20045;-67
2024/04/18 01:16:45;;;;;;;8.55;5.55;;;;;;;7.88;91.64;98717.44;6875089;25;20045;-67
2024/04/18 01:19:46;;;;;;;10.05;5.68;;;;;;;7.87;92.36;98712.38;6906021;25;20005;-76
2024/04/18 01:22:47;;;;;;;9.27;5.70;;;;;;;7.95;92.69;98719.59;6871281;25;19997;-67
2024/04/18 01:25:51;;;;;;;10.63;5.85;;;;;;;7.71;92.88;98717.00;6900005;25;20011;-76
2024/04/18 01:28:52;;;;;;;9.30;5.13;;;;;;;7.71;93.41;98727.38;6896040;25;19997;-76
2024/04/18 01:31:53;;;;;;;11.57;5.65;;;;;;;8.10;93.71;98720.28;6871455;25;20066;-76
2024/04/18 01:34:54;;;;;;;9.20;5.80;;;;;;;7.75;92.92;98723.63;6903888;25;19996;-76
2024/04/18 01:37:55;;;;;;;10.10;6.28;;;;;;;7.91;93.14;98719.00;6872031;25;20009;-67
2024/04/18 01:40:56;;;;;;;8.15;5.25;;;;;;;7.78;93.87;98716.47;6918102;25;19996;-75
2024/04/18 01:43:57;;;;;;;8.75;5.45;;;;;;;7.71;94.38;98729.97;6916647;25;20027;-76
2024/04/18 01:46:58;;;;;;;7.18;5.35;;;;;;;7.67;95.28;98732.75;6937436;25;19993;-76
2024/04/18 01:49:59;;;;;;;7.25;5.20;;;;;;;7.62;96.61;98740.06;6949403;25;20418;-75
2024/04/18 01:53:05;;;;;;;10.73;6.05;;;;;;;7.66;96.67;98736.31;6952118;25;20451;-76
2024/04/18 01:56:07;;;;;;;9.27;5.97;;;;;;;7.70;96.52;98744.72;6913645;25;20011;-76
2024/04/18 01:59:10;;;;;;;11.73;6.05;;;;;;;7.83;96.27;98742.91;6919068;25;20000;-69
2024/04/18 02:02:11;;;;;;;9.95;5.85;;;;;;;7.67;96.18;98745.75;6881293;25;20012;-68
2024/04/18 02:05:12;;;;;;;10.68;5.85;;;;;;;7.67;96.79;98755.31;6878858;25;20000;-69
2024/04/18 02:08:13;;;;;;;10.00;6.18;;;;;;;7.79;98.51;98751.84;6917524;25;20394;-69
2024/04/18 02:11:14;;;;;;;15.90;7.07;;;;;;;7.60;97.92;98754.91;6942085;25;19997;-76
2024/04/18 02:14:15;;;;;;;11.80;6.85;;;;;;;7.75;98.26;98754.78;6882123;25;20000;-67
2024/04/18 02:17:17;;;;;;;13.30;6.97;;;;;;;7.73;98.55;98757.47;6921685;25;20024;-68
2024/04/18 02:20:21;;;;;;;13.05;6.75;;;;;;;7.79;98.44;98762.25;6918562;25;20041;-67
2024/04/18 02:23:26;;;;;;;13.43;5.82;;;;;;;7.68;99.74;98762.19;6947075;25;20079;-76
2024/04/18 02:26:27;;;;;;;12.25;6.68;;;;;;;7.79;99.98;98758.81;6952758;25;20386;-75
2024/04/18 02:29:28;;;;;;;14.13;7.55;;;;;;;7.54;100.00;98763.13;6952142;25;20070;-68
2024/04/18 02:32:29;;;;;;;14.80;7.72;;;;;;;7.62;100.00;98765.19;6919025;25;20483;-67
2024/04/18 02:35:30;;;;;;;9.80;6.22;;;;;;;7.58;100.00;98763.75;6951899;25;20011;-75
2024/04/18 02:38:31;;;;;;;9.50;6.53;;;;;;;7.59;100.00;98770.59;6908469;25;20029;-75
2024/04/18 02:41:32;;;;;;;12.25;7.55;;;;;;;7.38;100.00;98768.53;6915353;25;20010;-75
2024/04/18 02:44:33;;;;;;;18.77;7.93;;;;;;;7.52;100.00;98765.00;6911071;25;20010;-67
2024/04/18 02:47:35;;;;;;;13.52;6.75;;;;;;;7.63;100.00;98772.88;6908100;25;20004;-67
2024/04/18 02:50:36;;;;;;;14.45;7.72;;;;;;;7.50;100.00;98761.69;6915381;25;20007;-67
2024/04/18 02:53:38;;;;;;;13.50;7.93;;;;;;;7.66;100.00;98767.47;6870909;25;20008;-75
2024/04/18 02:56:41;;;;;;;10.93;6.53;;;;;;;7.52;100.00;98769.38;6893575;25;20011;-75
2024/04/18 02:59:44;;;;;;;12.95;7.47;;;;;;;7.37;100.00;98772.06;6900470;25;20335;-67
2024/04/18 03:02:46;;;;;;;11.57;5.90;;;;;;;7.34;100.00;98759.28;6904929;25;19993;-66
2024/04/18 03:17:40;;;;;;;12.38;8.02;;;;;;;7.69;100.00;98769.00;6622605;26;20425;-76
2024/04/18 03:20:53;;;;;;;14.55;6.70;;;;;;;7.67;99.74;98765.69;6614383;26;20145;-76
2024/04/18 03:23:54;;;;;;;10.77;6.28;;;;;;;7.37;98.35;98761.69;6633775;26;20474;-76
2024/04/18 03:26:55;;;;;;;9.95;6.80;;;;;;;7.45;99.03;98780.16;6607306;26;20029;-82
2024/04/18 03:29:57;;;;;;;10.63;5.82;;;;;;;7.38;98.70;98759.94;6609278;27;20001;-82
2024/04/18 03:32:58;;;;;;;11.50;5.95;;;;;;;7.39;98.20;98767.63;6612098;26;20017;-82
2024/04/18 03:36:08;;;;;;;11.70;6.38;;;;;;;7.35;98.37;98770.50;6602986;27;20016;-76
2024/04/18 03:39:09;;;;;;;8.73;5.40;;;;;;;7.23;98.45;98769.59;6600838;27;20013;-82
2024/04/18 03:42:12;;;;;;;13.27;5.88;;;;;;;7.21;97.82;98774.06;6608511;26;20016;-82
2024/04/18 03:45:13;;;;;;;8.48;5.70;;;;;;;7.20;96.94;98769.78;6613867;26;20013;-81
2024/04/18 03:48:14;;;;;;;8.48;5.93;;;;;;;7.18;96.96;98766.47;6610447;27;20005;-82
2024/04/18 03:51:16;;;;;;;7.75;5.30;;;;;;;7.12;96.54;98772.06;6610754;26;20013;-83
2024/04/18 03:54:20;;;;;;;9.98;5.20;;;;;;;7.11;95.85;98765.22;6613809;27;20034;-81
2024/04/18 03:57:23;;;;;;;8.35;5.38;;;;;;;7.07;95.51;98762.00;6587198;27;20340;-82
2024/04/18 04:00:24;;;;;;;7.07;4.55;;;;;;;7.08;94.20;98774.03;6592854;27;20079;-82
2024/04/18 04:03:24;;;;;;;9.05;4.78;;;;;;;7.15;93.45;98779.66;6612657;26;20313;-82
2024/04/18 04:06:26;;;;;;;8.00;4.57;;;;;;;7.23;93.05;98777.38;6610478;26;20484;-82
2024/04/18 04:09:26;;;;;;;7.10;4.07;;;;;;;6.96;92.40;98772.25;6614725;26;20032;-83
2024/04/18 04:12:28;;;;;;;6.72;3.50;;;;;;;6.99;91.66;98785.03;6612132;27;20036;-83
2024/04/18 04:15:29;;;;;;;8.13;3.80;;;;;;;7.14;90.98;98790.94;6613189;26;20452;-83
2024/04/18 04:18:30;;;;;;;4.35;2.83;;;;;;;7.19;90.88;98804.44;6594165;27;20005;-76
2024/04/18 04:21:32;;;;;;;6.07;3.80;;;;;;;7.14;90.59;98781.38;6577875;26;20408;-77
2024/04/18 04:24:33;;;;;;;6.45;3.90;;;;;;;7.23;90.58;98798.94;6594831;26;19997;-77
2024/04/18 04:27:37;;;;;;;3.58;2.75;;;;;;;7.21;90.15;98794.81;6594126;27;20710;-76
2024/04/18 04:30:40;;;;;;;6.55;4.28;;;;;;;7.31;89.21;98795.84;6596581;26;20016;-77
2024/04/18 04:33:42;;;;;;;10.48;4.60;;;;;;;7.16;88.80;98799.44;6595201;26;20002;-76
2024/04/18 04:36:43;;;;;;;6.50;3.47;;;;;;;7.00;88.23;98805.69;6594713;27;19997;-76
2024/04/18 04:39:46;;;;;;;5.45;3.42;;;;;;;7.18;88.41;98806.19;6574184;26;20077;-82
2024/04/18 04:42:47;;;;;;;5.75;3.65;;;;;;;7.37;89.36;98807.56;6580408;27;20009;-78
2024/04/18 04:45:57;;;;;;;4.32;3.15;;;;;;;7.17;87.47;98811.50;6585318;27;20005;-83
2024/04/18 04:48:58;;;;;;;8.13;3.22;;;;;;;7.24;86.55;98794.59;6590287;26;20006;-80
2024/04/18 04:52:03;;;;;;;4.70;2.72;;;;;;;7.33;86.21;98813.88;6595107;26;20021;-82
2024/04/18 04:55:05;;;;;;;5.15;3.10;;;;;;;7.23;85.76;98805.91;6597284;26;20463;-79
2024/04/18 04:58:06;;;;;;;4.95;3.33;;;;;;;7.60;86.73;98822.41;6596505;27;20006;-82
2024/04/18 05:01:08;;;;;;;8.45;2.78;;;;;;;7.47;85.84;98824.16;6595876;27;20002;-84
2024/04/18 05:04:09;;;;;;;5.45;2.85;;;;;;;7.25;85.45;98819.63;6594938;26;20020;-82
2024/04/18 05:07:10;;;;;;;7.45;3.70;;;;;;;7.47;85.50;98824.16;6595242;27;20483;-82
2024/04/18 05:10:11;;;;;;;7.45;2.95;;;;;;;7.26;85.35;98829.03;6594865;27;20002;-83
2024/04/18 05:13:14;;;;;;;4.43;2.72;;;;;;;7.36;85.64;98827.50;6594649;27;20336;-83
2024/04/18 05:16:15;;;;;;;3.65;2.97;;;;;;;7.56;85.03;98839.13;6596447;26;20483;-83
2024/04/18 05:19:19;;;;;;;5.05;3.15;;;;;;;7.60;85.24;98831.97;6595728;26;20009;-83
2024/04/18 05:22:21;;;;;;;5.00;3.47;;;;;;;7.56;85.17;98841.72;6598155;26;20002;-84
2024/04/18 05:25:25;;;;;;;5.00;3.28;;;;;;;7.47;85.53;98838.00;6596429;27;20005;-82
2024/04/18 05:28:41;;;;;;;5.90;3.50;;;;;;;7.66;84.88;98840.16;6595478;27;20484;-84
2024/04/18 05:31:42;;;;;;;3.65;2.80;;;;;;;7.47;85.13;98842.34;6596563;27;19994;-83
2024/04/18 05:34:43;;;;;;;4.30;2.80;;;;;;;7.52;85.36;98835.09;6596010;27;20005;-83
2024/04/18 05:37:44;;;;;;;4.55;2.67;;;;;;;7.51;85.27;98840.38;6595767;26;20002;-83
2024/04/18 05:40:46;;;;;;;5.40;3.08;;;;;;;7.65;84.87;98850.66;6593977;27;20013;-85
2024/04/18 05:43:48;;;;;;;3.65;2.50;;;;;;;7.64;83.90;98843.81;6593933;26;20005;-79
2024/04/18 05:46:49;;;;;;;4.13;2.80;;;;;;;7.57;83.06;98850.34;6593508;27;20562;-80
2024/04/18 05:49:50;;;;;;;2.90;2.58;;;;;;;7.79;82.77;98841.91;6594234;27;20002;-82
2024/04/18 05:52:53;;;;;;;3.45;2.58;;;;;;;7.62;81.85;98859.47;6594025;27;20018;-81
2024/04/18 05:55:56;;;;;;;4.05;2.63;;;;;;;7.62;81.59;98851.69;6593664;27;20005;-84
2024/04/18 05:58:58;;;;;;;6.93;2.78;;;;;;;7.64;81.21;98849.00;6622651;26;19998;-83
2024/04/18 06:01:59;;;;;;;5.00;3.10;;;;;;;7.65;80.89;98837.66;6595552;26;20037;-80
2024/04/18 06:05:00;;;;;;;5.88;3.22;;;;;;;7.81;80.89;98853.03;6594049;27;20475;-81
2024/04/18 06:08:02;;;;;;;4.47;2.72;;;;;;;7.80;80.20;98853.97;6595396;26;20411;-86
2024/04/18 06:11:05;;;;;;;4.75;2.97;;;;;;;8.08;79.84;98861.50;6593549;27;19997;-82
2024/04/18 06:14:06;;;;;;;4.25;2.67;;;;;;;7.94;79.89;98851.25;6593445;27;19998;-84
2024/04/18 06:17:07;;;;;;;4.38;3.10;;;;;;;7.75;80.06;98853.47;6593283;26;20001;-81
2024/04/18 06:20:09;;;;;;;3.72;2.65;;;;;;;7.94;80.60;98859.03;6594135;27;20034;-81
2024/04/18 06:23:11;;;;;;;4.63;3.00;;;;;;;7.76;79.34;98842.97;6593868;27;20034;-81
2024/04/18 06:26:12;;;;;;;5.35;2.83;;;;;;;7.86;79.58;98856.13;6594988;27;20001;-80
2024/04/18 06:29:16;;;;;;;5.38;3.03;;;;;;;7.89;79.09;98861.13;6593855;27;19998;-84
2024/04/18 06:32:17;;;;;;;3.70;2.60;;;;;;;7.77;78.04;98849.00;6594724;26;20001;-86
2024/04/18 06:35:19;;;;;;;6.97;2.38;;;;;;;8.05;78.32;98861.72;6592859;26;20009;-85
2024/04/18 06:38:20;;;;;;;4.70;2.75;;;;;;;8.19;76.85;98862.53;6593968;27;20001;-81
2024/04/18 06:41:21;;;;;;;5.85;3.00;;;;;;;8.36;75.32;98861.31;6594657;26;19998;-84
2024/04/18 06:44:22;;;;;;;4.07;2.90;;;;;;;8.32;73.93;98865.06;6592779;26;20029;-81
2024/04/18 06:47:23;;;;;;;2.85;2.08;;;;;;;8.30;74.60;98860.00;6593402;26;20021;-82
2024/04/18 06:50:26;;;;;;;7.20;2.58;;;;;;;8.25;74.07;98862.09;6592949;27;20068;-85
2024/04/18 06:53:27;;;;;;;2.80;2.15;;;;;;;8.41;73.85;98875.69;6593666;26;20006;-84
2024/04/18 06:56:31;;;;;;;6.13;2.47;;;;;;;8.40;73.28;98876.63;6593262;27;20407;-83
2024/04/18 06:59:31;;;;;;;5.85;2.58;;;;;;;8.65;73.72;98869.69;6594308;26;20002;-86
2024/04/18 07:02:32;;;;;;;4.35;2.30;;;;;;;8.63;72.60;98862.00;6594365;26;20071;-84
2024/04/18 07:05:33;;;;;;;6.38;2.85;;;;;;;8.74;71.58;98874.22;6593405;26;20025;-85
2024/04/18 07:08:35;;;;;;;4.13;2.63;;;;;;;8.86;72.16;98869.91;6594102;26;19997;-80
2024/04/18 07:11:36;;;;;;;3.05;2.28;;;;;;;8.97;72.60;98884.75;6594577;26;20328;-82
2024/04/18 07:14:39;;;;;;;3.67;2.58;;;;;;;8.87;71.78;98889.78;6593055;27;20008;-81
2024/04/18 07:17:44;;;;;;;5.22;2.13;;;;;;;8.97;71.24;98871.72;6593536;27;20001;-82
2024/04/18 07:20:45;;;;;;;3.30;2.45;;;;;;;9.34;71.13;98893.25;6592204;27;20339;-87
2024/04/18 07:23:46;;;;;;;3.25;2.08;;;;;;;9.18;70.94;98896.19;6592356;27;20001;-81
2024/04/18 07:26:47;;;;;;;3.38;2.47;;;;;;;9.08;70.18;98897.81;6594791;26;19997;-84
2024/04/18 07:29:48;;;;;;;3.67;2.45;;;;;;;9.35;70.44;98888.88;6591573;26;20452;-84
2024/04/18 07:32:51;;;;;;;6.30;2.57;;;;;;;9.44;70.38;98885.59;6591621;27;20041;-81
2024/04/18 07:35:56;;;;;;;4.25;2.28;;;;;;;9.39;69.70;98882.50;6592372;27;20002;-80
2024/04/18 07:38:57;;;;;;;4.10;2.33;;;;;;;9.47;68.03;98898.38;6594692;26;20009;-81
2024/04/18 07:41:58;;;;;;;4.25;2.67;;;;;;;9.26;67.59;98906.00;6592642;26;20009;-85
2024/04/18 07:44:59;;;;;;;2.42;2.15;;;;;;;9.30;67.78;98902.25;6593352;26;20002;-80
2024/04/18 07:48:01;;;;;;;7.07;2.45;;;;;;;9.15;67.47;98900.78;6592211;27;20014;-82
2024/04/18 07:51:03;;;;;;;2.25;1.95;;;;;;;9.30;67.97;98914.44;6594059;26;20086;-80
2024/04/18 07:54:04;;;;;;;4.63;2.47;;;;;;;9.29;67.63;98921.41;6597794;26;20001;-82
2024/04/18 07:57:06;;;;;;;3.38;2.05;;;;;;;8.80;67.16;98923.19;6595185;26;20360;-82
2024/04/18 08:00:07;;;;;;;5.32;2.53;;;;;;;8.87;68.03;98936.59;6595041;27;20012;-79
2024/04/18 08:03:11;;;;;;;4.03;2.28;;;;;;;9.13;68.05;98926.91;6596960;26;20005;-81
2024/04/18 08:06:13;;;;;;;4.13;2.63;;;;;;;9.33;68.30;98924.59;6596093;26;20001;-85
2024/04/18 08:09:14;;;;;;;4.03;2.83;;;;;;;9.15;68.34;98927.63;6595066;26;20002;-80
2024/04/18 08:12:15;;;;;;;4.93;2.08;;;;;;;9.25;67.66;98925.19;6597423;26;19994;-81
2024/04/18 08:15:16;;;;;;;8.13;3.35;;;;;;;9.05;67.41;98937.03;6595142;27;20012;-80
2024/04/18 08:18:18;;;;;;;3.60;2.10;;;;;;;8.81;66.80;98935.28;6595577;27;20419;-81
2024/04/18 08:21:19;;;;;;;7.88;2.20;;;;;;;8.99;67.61;98946.13;6597098;26;20541;-85
2024/04/18 08:24:27;;;;;;;3.13;1.98;;;;;;;8.93;66.35;98923.16;6595484;27;20008;-84
2024/04/18 08:27:29;;;;;;;3.70;2.28;;;;;;;9.14;67.06;98941.59;6596303;26;19994;-84
2024/04/18 08:30:30;;;;;;;14.18;2.40;;;;;;;9.21;65.77;98940.19;6595697;27;20009;-81
2024/04/18 08:33:31;;;;;;;3.60;2.30;;;;;;;9.43;65.50;98944.66;6595344;27;20025;-85
2024/04/18 08:36:32;;;;;;;5.00;2.47;;;;;;;9.25;65.41;98939.03;6595094;27;20054;-82
2024/04/18 08:39:33;;;;;;;4.40;2.70;;;;;;;9.38;64.90;98949.38;6597333;26;20013;-83
2024/04/18 08:42:34;;;;;;;6.13;2.40;;;;;;;9.37;64.51;98946.88;6595091;27;20343;-82
2024/04/18 08:45:36;;;;;;;4.82;1.73;;;;;;;9.77;65.05;98942.13;6595392;27;20001;-81
2024/04/18 08:48:38;;;;;;;2.35;1.77;;;;;;;9.70;63.24;98948.78;6597667;26;20374;-82
2024/04/18 08:51:40;;;;;;;3.88;2.15;;;;;;;9.76;62.82;98961.34;6595549;26;20052;-81
2024/04/18 08:54:41;;;;;;;3.42;2.08;;;;;;;9.91;62.23;98968.94;6596711;26;19998;-85
2024/04/18 08:57:51;;;;;;;4.35;2.72;;;;;;;9.87;62.03;98963.13;6597139;26;20013;-80
2024/04/18 09:00:57;;;;;;;3.38;2.00;;;;;;;10.00;61.84;98965.63;6596647;26;20016;-82
2024/04/18 09:03:58;;;;;;;2.22;1.98;;;;;;;10.08;62.95;98966.69;6595326;27;20347;-81
2024/04/18 09:06:59;;;;;;;3.90;2.00;;;;;;;9.87;62.47;98969.16;6595270;26;20057;-82
2024/04/18 09:10:07;;;;;;;10.47;3.30;;;;;;;10.35;62.82;98975.16;6594637;27;20008;-80
2024/04/18 09:13:10;;;;;;;2.03;1.73;;;;;;;10.19;61.67;98978.94;6595164;27;20071;-80
2024/04/18 09:16:10;;;;;;;4.93;1.65;;;;;;;10.00;60.98;98973.44;6594342;27;20016;-87
2024/04/18 09:19:11;;;;;;;4.65;2.13;;;;;;;10.07;61.71;98977.25;6596084;27;19997;-82
2024/04/18 09:22:14;;;;;;;4.80;2.53;;;;;;;10.03;61.33;98974.03;6594618;27;20515;-86
2024/04/18 09:25:15;;;;;;;2.72;1.83;;;;;;;10.03;61.41;98963.63;6594754;27;20012;-85
2024/04/18 09:28:20;;;;;;;5.65;2.22;;;;;;;10.36;61.03;98975.06;6593998;27;20041;-86
2024/04/18 09:31:21;;;;;;;3.47;1.95;;;;;;;10.44;60.97;98983.13;6622186;26;19997;-86
2024/04/18 09:34:23;;;;;;;10.07;4.30;;;;;;;10.37;62.00;98989.72;6593370;27;20002;-86
2024/04/18 09:37:27;;;;;;;4.68;3.47;;;;;;;10.48;62.47;98981.94;6593830;27;20071;-85
2024/04/18 09:40:31;;;;;;;8.75;4.18;;;;;;;10.11;61.73;98988.25;6623192;26;20012;-81
2024/04/18 09:44:04;;;;;;;10.05;6.75;;;;;;;10.32;63.11;98991.88;6622663;26;20043;-81
2024/04/18 09:47:05;;;;;;;6.03;2.30;;;;;;;10.05;62.57;98989.56;6590112;27;20002;-85
2024/04/18 09:50:07;;;;;;;5.18;2.35;;;;;;;10.07;62.95;98995.50;6623503;26;20056;-81
2024/04/18 09:53:10;;;;;;;3.43;2.53;;;;;;;10.17;62.05;98993.84;6593519;27;19993;-86
2024/04/18 09:56:12;;;;;;;3.47;2.10;;;;;;;10.58;61.81;99007.28;6594431;27;20323;-82
2024/04/18 09:59:15;;;;;;;3.50;1.97;;;;;;;10.63;61.71;99000.75;6595200;26;20071;-81
2024/04/18 10:02:16;;;;;;;4.10;2.25;;;;;;;10.75;62.18;99003.34;6594173;27;20351;-81
2024/04/18 10:05:19;;;;;;;6.25;2.35;;;;;;;10.11;61.56;99007.34;6593995;27;20009;-80
2024/04/18 10:08:27;;;;;;;;;;;;;;;10.57;63.08;99016.88;6594103;26;20460;-84
2024/04/18 10:11:31;;;;;;;6.28;3.53;;;;;;;10.72;61.53;99014.88;6593219;26;20357;-85
2024/04/18 10:14:32;;;;;;;8.15;5.40;;;;;;;10.67;61.23;99004.78;6593327;26;20452;-86
2024/04/18 10:17:33;;;;;;;9.73;6.95;;;;;;;10.68;60.67;99011.66;6592892;27;20002;-85
2024/04/18 10:20:34;;;;;;;14.30;7.90;;;;;;;11.25;60.38;99003.75;6593190;27;20387;-81
2024/04/18 10:23:38;;;;;;;5.25;3.30;;;;;;;11.28;59.14;99006.94;6595336;26;20006;-82
2024/04/18 10:26:41;;;;;;;3.30;2.20;;;;;;;11.32;59.92;99010.13;6594472;26;20463;-83
2024/04/18 10:29:52;;;;;;;4.93;1.90;;;;;;;11.19;58.38;99007.66;6592616;27;19998;-88
2024/04/18 10:32:55;;;;;;;6.05;1.83;;;;;;;11.14;58.77;99002.00;6593537;27;20016;-81
2024/04/18 10:35:59;;;;;;;5.10;1.95;;;;;;;11.12;57.30;99016.94;6593466;27;20029;-85
2024/04/18 10:38:59;;;;;;;10.13;2.33;;;;;;;11.18;59.27;99026.06;6593261;27;20008;-84
2024/04/18 10:42:03;;;;;;;5.88;2.08;;;;;;;11.12;59.37;99024.78;6594547;26;20014;-85
2024/04/18 10:45:04;;;;;;;;;;;;;;;11.21;58.13;99023.22;6593822;27;20012;-83
2024/04/18 10:48:05;;;;;;;5.40;1.70;;;;;;;10.84;58.74;99032.16;6592597;26;19954;-86
2024/04/18 10:51:07;;;;;;;3.53;1.80;;;;;;;10.77;57.83;99017.97;6621710;26;20448;-83
2024/04/18 10:54:14;;;;;;;1.35;1.25;;;;;;;10.90;56.98;99017.81;6592237;27;20012;-86
2024/04/18 10:57:17;;;;;;;2.85;1.50;;;;;;;11.24;56.78;99039.47;6593614;27;20120;-81
2024/04/18 11:00:18;;;;;;;5.10;1.40;;;;;;;11.17;56.69;99027.03;6593252;27;20054;-79
2024/04/18 11:03:19;;;;;;;8.10;1.75;;;;;;;11.45;55.75;99038.69;6592762;27;19998;-81
2024/04/18 11:06:20;;;;;;;4.80;1.35;;;;;;;11.83;57.70;99030.34;6592604;27;20012;-81
2024/04/18 11:09:21;;;;;;;5.60;1.60;;;;;;;11.93;55.98;99046.13;6592436;27;20013;-88
2024/04/18 11:12:22;;;;;;;5.15;1.73;;;;;;;11.66;55.33;99046.56;6592460;27;20079;-85
2024/04/18 11:15:23;;;;;;;1.57;1.30;;;;;;;12.20;56.09;99056.06;6593702;27;20030;-82
2024/04/18 11:18:25;;;;;;;2.92;1.50;;;;;;;11.45;55.15;99046.53;6592159;27;20800;-86
2024/04/18 11:21:26;;;;;;;1.70;1.27;;;;;;;11.64;55.91;99053.72;6592203;27;20084;-86
2024/04/18 11:24:28;;;;;;;3.60;1.52;;;;;;;11.99;55.62;99052.63;6593566;26;20068;-81
2024/04/18 11:27:29;;;;;;;3.35;1.40;;;;;;;12.08;56.42;99055.28;6593378;26;20001;-89
2024/04/18 11:30:31;;;;;;;2.20;1.25;;;;;;;12.17;57.40;99058.94;6595070;27;20002;-89
2024/04/18 11:33:37;;;;;;;4.78;1.30;;;;;;;11.88;54.81;99038.66;6595737;26;20005;-83
2024/04/18 11:36:38;;;;;;;4.10;1.27;;;;;;;11.96;55.11;99058.09;6597875;26;20006;-86
2024/04/18 11:39:40;;;;;;;3.47;1.38;;;;;;;11.63;53.79;99073.78;6595898;26;20010;-80
2024/04/18 11:42:42;;;;;;;;;;;;;;;11.86;54.50;99076.28;6598764;26;20080;-85
2024/04/18 11:45:42;;;;;;;1.58;1.40;;;;;;;11.76;55.03;99064.97;6595300;27;19934;-85
2024/04/18 11:48:43;;;;;;;2.28;1.25;;;;;;;11.98;54.52;99075.31;6595556;27;20009;-86
2024/04/18 11:51:44;;;;;;;1.90;1.30;;;;;;;11.78;55.00;99063.03;6595210;26;20006;-81
2024/04/18 11:54:45;;;;;;;3.13;1.55;;;;;;;11.81;55.25;99083.69;6597510;26;19997;-82
2024/04/18 11:57:46;;;;;;;3.22;1.10;;;;;;;11.50;54.61;99071.31;6595549;27;20460;-82
2024/04/18 12:00:47;;;;;;;6.30;1.63;;;;;;;11.84;56.00;99073.81;6596838;26;20002;-87
2024/04/18 12:03:48;;;;;;;1.50;1.30;;;;;;;12.24;57.20;99073.16;6594768;27;20289;-88
2024/04/18 12:06:50;;;;;;;2.70;1.63;;;;;;;12.10;56.00;99081.31;6597503;26;19998;-81
2024/04/18 12:09:54;;;;;;;1.90;1.25;;;;;;;12.05;53.88;99071.25;6595834;27;20006;-85
2024/04/18 12:12:58;;;;;;;2.25;1.40;;;;;;;12.00;54.54;99076.00;6597695;26;20472;-86
2024/04/18 12:15:59;;;;;;;2.15;1.45;;;;;;;11.83;55.27;99082.59;6595197;27;20005;-82
2024/04/18 12:19:00;;;;;;;2.65;1.33;;;;;;;11.61;56.82;99083.53;6624371;26;20013;-81
2024/04/18 12:22:03;;;;;;;1.65;1.42;;;;;;;11.98;55.42;99077.09;6597592;27;19997;-85
2024/04/18 12:25:05;;;;;;;1.90;1.10;;;;;;;12.39;55.96;99073.66;6595391;27;20002;-83
2024/04/18 12:28:07;;;;;;;1.40;1.10;;;;;;;12.97;53.94;99078.34;6595951;26;19997;-84
2024/04/18 12:31:08;;;;;;;2.60;1.27;;;;;;;13.56;51.88;99081.13;6595527;27;20001;-80
2024/04/18 12:34:09;;;;;;;3.83;1.30;;;;;;;13.97;51.15;99085.28;6594605;26;20002;-80
2024/04/18 12:37:10;;;;;;;1.95;1.33;;;;;;;14.12;51.70;99088.28;6595500;26;20080;-80
2024/04/18 12:40:14;;;;;;;1.25;1.05;;;;;;;14.04;51.17;99083.78;6594345;26;20029;-83
2024/04/18 12:43:20;;;;;;;3.92;1.05;;;;;;;14.51;51.13;99073.28;6594061;26;20005;-84
2024/04/18 12:46:21;;;;;;;2.20;1.38;;;;;;;14.73;50.95;99079.22;6593895;26;20079;-85
2024/04/18 12:49:33;;;;;;;2.80;1.38;;;;;;;14.69;47.31;99078.66;6595294;26;20415;-80
2024/04/18 12:52:35;;;;;;;1.98;1.10;;;;;;;14.19;48.82;99084.16;6593685;26;20002;-84
2024/04/18 12:55:36;;;;;;;2.53;1.27;;;;;;;13.61;48.80;99078.91;6593710;26;20002;-80
2024/04/18 12:58:37;;;;;;;4.72;1.40;;;;;;;14.03;50.65;99081.28;6595619;26;20400;-79
2024/04/18 13:01:38;;;;;;;3.20;1.20;;;;;;;13.97;49.42;99093.16;6594443;27;20451;-85
2024/04/18 13:04:39;;;;;;;4.43;1.63;;;;;;;13.68;48.22;99085.28;6595655;26;19997;-84
2024/04/18 13:07:41;;;;;;;2.00;1.30;;;;;;;13.63;49.42;99093.56;6595310;26;20013;-85
2024/04/18 13:10:42;;;;;;;3.45;1.33;;;;;;;13.75;48.75;99091.63;6593282;26;20006;-85
2024/04/18 13:13:43;;;;;;;1.98;1.02;;;;;;;13.00;47.71;99082.50;6594029;27;20006;-82
2024/04/18 13:16:49;;;;;;;1.55;1.10;;;;;;;13.00;49.12;99085.09;6593493;26;20005;-84
2024/04/18 13:19:51;;;;;;;2.53;1.08;;;;;;;13.33;49.36;99083.16;6595560;26;20371;-80
2024/04/18 13:22:52;;;;;;;2.50;1.20;;;;;;;13.08;49.75;99093.94;6594049;26;20001;-80
2024/04/18 13:25:54;;;;;;;5.97;1.15;;;;;;;13.42;48.70;99092.81;6595847;26;20017;-81
2024/04/18 13:28:54;;;;;;;2.42;1.02;;;;;;;13.27;48.66;99094.97;6594387;27;20002;-80
2024/04/18 13:31:56;;;;;;;1.55;1.20;;;;;;;13.14;48.37;99100.47;6593809;26;20002;-85
2024/04/18 13:34:58;;;;;;;2.92;1.10;;;;;;;13.16;47.38;99095.06;6593119;27;20005;-85
2024/04/18 13:37:59;;;;;;;2.50;1.27;;;;;;;13.39;48.12;99098.34;6593027;26;20005;-85
2024/04/18 13:41:01;;;;;;;6.27;3.40;;;;;;;13.43;49.47;99094.50;6594367;26;20299;-85
2024/04/18 13:44:02;;;;;;;6.38;2.53;;;;;;;12.81;47.75;99076.22;6594898;26;20592;-85
2024/04/18 13:47:06;;;;;;;3.17;1.27;;;;;;;13.11;48.86;99087.63;6592627;27;20045;-86
2024/04/18 13:50:07;;;;;;;3.50;1.38;;;;;;;13.02;48.96;99094.47;6593385;26;20080;-83
2024/04/18 13:53:11;;;;;;;6.38;1.10;;;;;;;13.23;48.32;99104.06;6593467;27;20017;-85
2024/04/18 13:56:12;;;;;;;5.88;1.20;;;;;;;13.44;48.74;99098.75;6566147;26;20006;-83
2024/04/18 13:59:14;;;;;;;4.17;1.17;;;;;;;13.51;48.05;99102.50;6553863;27;20072;-83
2024/04/18 14:02:15;;;;;;;1.00;0.77;;;;;;;14.14;49.43;99096.03;6580624;27;20014;-83
2024/04/18 14:05:19;;;;;;;4.63;1.30;;;;;;;14.39;47.50;99098.09;6578325;27;20002;-85
2024/04/18 14:08:21;;;;;;;4.43;1.20;;;;;;;13.95;47.06;99102.94;6612600;26;20002;-84
2024/04/18 14:11:22;;;;;;;2.70;1.20;;;;;;;13.46;45.34;99104.69;6592504;26;20013;-84
2024/04/18 14:14:23;;;;;;;2.50;1.33;;;;;;;13.38;45.00;99099.28;6594078;26;20010;-83
2024/04/18 14:20:47;;;;;;;1.33;0.98;;;;;;;13.84;43.32;99113.59;6592693;26;20021;-83
2024/04/18 14:23:49;;;;;;;2.15;1.10;;;;;;;13.79;43.72;99107.91;6593942;26;20010;-83
2024/04/18 14:26:49;;;;;;;3.85;0.95;;;;;;;13.17;42.80;99108.03;6605108;26;20345;-85
2024/04/18 14:29:53;;;;;;;2.07;1.33;;;;;;;14.14;43.60;99099.47;6587192;26;20049;-85
2024/04/18 14:32:54;;;;;;;1.88;1.10;;;;;;;14.35;41.89;99095.84;6559689;26;20457;-85
2024/04/18 14:35:55;;;;;;;6.15;1.67;;;;;;;13.48;42.65;99100.97;6551949;27;20038;-87